createdAt,value
2022-11-07T00:00:12.598Z,11.33
2022-11-07T00:02:39.369Z,11.29
2022-11-07T00:05:06.643Z,11.17
2022-11-07T00:07:33.331Z,11.23
2022-11-07T00:09:59.937Z,11.30
2022-11-07T00:12:26.537Z,11.11
2022-11-07T00:14:53.224Z,11.16
2022-11-07T00:17:19.990Z,11.05
2022-11-07T00:19:46.764Z,10.98
2022-11-07T00:22:13.338Z,10.93
2022-11-07T00:24:39.994Z,11.00
2022-11-07T00:27:06.670Z,10.96
2022-11-07T00:29:33.320Z,10.99
2022-11-07T00:32:00.059Z,10.84
2022-11-07T00:34:26.672Z,11.03
2022-11-07T00:36:53.387Z,10.99
2022-11-07T00:39:20.075Z,10.97
2022-11-07T00:41:48.438Z,10.97
2022-11-07T00:44:15.551Z,11.10
2022-11-07T00:46:42.141Z,10.93
2022-11-07T00:49:08.806Z,10.97
2022-11-07T00:51:35.471Z,10.94
2022-11-07T00:54:03.419Z,10.91
2022-11-07T00:56:30.063Z,10.86
2022-11-07T00:58:57.386Z,10.98
2022-11-07T01:01:28.768Z,11.04
2022-11-07T01:04:33.714Z,11.23
2022-11-07T01:07:00.324Z,10.98
2022-11-07T01:09:27.032Z,11.10
2022-11-07T01:11:53.830Z,11.12
2022-11-07T01:14:21.354Z,11.07
2022-11-07T01:16:48.127Z,10.89
2022-11-07T01:19:14.766Z,10.78
2022-11-07T01:21:41.673Z,10.94
2022-11-07T01:24:08.813Z,10.77
2022-11-07T01:26:36.677Z,10.75
2022-11-07T01:29:03.874Z,10.74
2022-11-07T01:31:31.334Z,10.74
2022-11-07T01:33:58.898Z,10.80
2022-11-07T01:36:25.554Z,10.80
2022-11-07T01:38:52.415Z,10.76
2022-11-07T01:41:26.897Z,10.91
2022-11-07T01:44:08.636Z,10.91
2022-11-07T01:46:42.520Z,10.98
2022-11-07T01:49:20.498Z,10.86
2022-11-07T01:51:58.319Z,10.82
2022-11-07T01:54:31.968Z,10.81
2022-11-07T01:56:59.478Z,10.64
2022-11-07T01:59:27.456Z,10.34
2022-11-07T02:01:54.266Z,10.50
2022-11-07T02:04:21.355Z,10.65
2022-11-07T02:07:13.684Z,10.52
2022-11-07T02:09:40.450Z,10.49
2022-11-07T02:12:07.406Z,10.56
2022-11-07T02:14:34.006Z,10.48
2022-11-07T02:17:00.731Z,10.46
2022-11-07T02:19:34.891Z,10.50
2022-11-07T02:22:07.638Z,10.36
2022-11-07T02:24:35.025Z,10.12
2022-11-07T02:27:04.494Z,10.21
2022-11-07T02:29:31.138Z,10.30
2022-11-07T02:32:05.682Z,10.36
2022-11-07T02:34:32.302Z,10.18
2022-11-07T02:36:58.927Z,10.22
2022-11-07T02:39:25.645Z,9.97
2022-11-07T02:41:52.339Z,9.96
2022-11-07T02:44:18.908Z,9.98
2022-11-07T02:46:45.798Z,9.95
2022-11-07T02:49:12.391Z,9.78
2022-11-07T02:51:39.096Z,9.40
2022-11-07T02:54:05.822Z,9.44
2022-11-07T02:56:32.416Z,9.58
2022-11-07T02:58:59.088Z,9.68
2022-11-07T03:01:25.892Z,9.58
2022-11-07T03:03:52.742Z,9.29
2022-11-07T03:06:23.433Z,9.48
2022-11-07T03:08:50.139Z,9.54
2022-11-07T03:11:22.685Z,9.40
2022-11-07T03:13:49.681Z,9.48
2022-11-07T03:16:16.757Z,9.56
2022-11-07T03:18:43.514Z,9.59
2022-11-07T03:21:10.202Z,9.58
2022-11-07T03:23:36.912Z,9.50
2022-11-07T03:26:04.184Z,9.54
2022-11-07T03:28:30.782Z,8.98
2022-11-07T03:31:00.767Z,9.11
2022-11-07T03:33:28.832Z,9.27
2022-11-07T03:35:55.510Z,9.22
2022-11-07T03:38:22.641Z,9.47
2022-11-07T03:40:49.484Z,9.36
2022-11-07T03:43:16.515Z,9.24
2022-11-07T03:45:43.571Z,9.33
2022-11-07T03:48:10.346Z,9.02
2022-11-07T03:50:36.991Z,8.92
2022-11-07T03:53:03.628Z,8.60
2022-11-07T03:55:30.287Z,8.26
2022-11-07T03:57:56.882Z,8.36
2022-11-07T04:00:23.775Z,8.63
2022-11-07T04:02:50.579Z,8.68
2022-11-07T04:05:17.457Z,8.41
2022-11-07T04:07:44.088Z,8.49
2022-11-07T04:10:10.707Z,8.68
2022-11-07T04:12:56.075Z,8.88
2022-11-07T04:15:41.520Z,8.51
2022-11-07T04:18:08.149Z,8.48
2022-11-07T04:20:34.823Z,8.43
2022-11-07T04:23:01.450Z,8.51
2022-11-07T04:25:46.629Z,8.56
2022-11-07T04:28:16.216Z,8.80
2022-11-07T04:30:42.924Z,8.69
2022-11-07T04:33:09.717Z,8.77
2022-11-07T04:35:36.367Z,8.86
2022-11-07T04:38:02.948Z,8.60
2022-11-07T04:40:29.925Z,8.75
2022-11-07T04:42:56.620Z,8.77
2022-11-07T04:45:23.199Z,8.65
2022-11-07T04:47:49.915Z,8.82
2022-11-07T04:50:17.792Z,8.86
2022-11-07T04:52:45.563Z,8.71
2022-11-07T04:55:18.219Z,8.27
2022-11-07T04:57:45.526Z,8.48
2022-11-07T05:00:12.615Z,8.59
2022-11-07T05:02:39.385Z,8.71
2022-11-07T05:05:06.738Z,8.79
2022-11-07T05:07:33.360Z,8.81
2022-11-07T05:10:00.006Z,8.58
2022-11-07T05:12:26.648Z,8.51
2022-11-07T05:14:53.292Z,8.71
2022-11-07T05:17:20.868Z,8.87
2022-11-07T05:19:49.447Z,9.03
2022-11-07T05:22:34.704Z,8.92
2022-11-07T05:25:01.367Z,8.93
2022-11-07T05:27:27.975Z,9.04
2022-11-07T05:29:54.630Z,9.10
2022-11-07T05:32:21.240Z,9.22
2022-11-07T05:34:48.910Z,9.22
2022-11-07T05:37:15.561Z,9.35
2022-11-07T05:39:42.261Z,9.36
2022-11-07T05:42:08.867Z,9.24
2022-11-07T05:44:35.489Z,9.24
2022-11-07T05:47:02.062Z,9.14
2022-11-07T05:49:28.731Z,9.40
2022-11-07T05:51:55.366Z,9.30
2022-11-07T05:54:22.072Z,9.23
2022-11-07T05:56:48.800Z,9.25
2022-11-07T05:59:15.462Z,9.23
2022-11-07T06:01:42.318Z,9.11
2022-11-07T06:04:09.021Z,9.28
2022-11-07T06:06:35.795Z,9.41
2022-11-07T06:09:02.430Z,9.23
2022-11-07T06:11:29.157Z,9.35
2022-11-07T06:13:55.822Z,9.18
2022-11-07T06:16:22.398Z,9.30
2022-11-07T06:18:49.090Z,9.26
2022-11-07T06:21:16.852Z,9.27
2022-11-07T06:23:43.654Z,9.55
2022-11-07T06:26:10.345Z,9.39
2022-11-07T06:28:37.006Z,9.34
2022-11-07T06:31:04.335Z,9.58
2022-11-07T06:33:31.134Z,9.48
2022-11-07T06:36:08.535Z,9.56
2022-11-07T06:38:35.653Z,9.41
2022-11-07T06:41:09.621Z,9.63
2022-11-07T06:43:36.516Z,9.85
2022-11-07T06:46:04.486Z,9.72
2022-11-07T06:48:31.324Z,9.75
2022-11-07T06:50:59.382Z,10.00
2022-11-07T06:53:26.197Z,9.96
2022-11-07T06:55:53.199Z,9.89
2022-11-07T06:58:19.981Z,9.77
2022-11-07T07:00:46.722Z,9.77
2022-11-07T07:03:13.888Z,9.78
2022-11-07T07:05:40.819Z,9.79
2022-11-07T07:08:07.877Z,9.69
2022-11-07T07:10:39.166Z,9.82
2022-11-07T07:13:05.822Z,9.86
2022-11-07T07:15:49.428Z,9.73
2022-11-07T07:18:16.887Z,9.74
2022-11-07T07:20:43.656Z,9.85
2022-11-07T07:23:10.300Z,9.93
2022-11-07T07:25:36.933Z,9.84
2022-11-07T07:28:03.506Z,9.99
2022-11-07T07:30:30.305Z,9.98
2022-11-07T07:32:57.047Z,9.90
2022-11-07T07:35:23.658Z,10.07
2022-11-07T07:37:51.776Z,10.05
2022-11-07T07:40:19.086Z,9.84
2022-11-07T07:42:45.817Z,9.80
2022-11-07T07:45:13.081Z,10.18
2022-11-07T07:47:39.874Z,10.10
2022-11-07T07:50:07.473Z,10.20
2022-11-07T07:52:34.201Z,10.17
2022-11-07T07:55:00.934Z,10.16
2022-11-07T07:57:27.619Z,10.52
2022-11-07T07:59:54.269Z,10.40
2022-11-07T08:02:20.985Z,10.61
2022-11-07T08:04:47.628Z,10.59
2022-11-07T08:07:14.313Z,10.46
2022-11-07T08:09:40.972Z,10.40
2022-11-07T08:12:10.699Z,10.69
2022-11-07T08:14:37.516Z,10.70
2022-11-07T08:17:04.354Z,10.78
2022-11-07T08:19:31.026Z,10.70
2022-11-07T08:21:57.714Z,10.90
2022-11-07T08:24:24.397Z,10.98
2022-11-07T08:26:51.083Z,10.96
2022-11-07T08:29:18.179Z,11.12
2022-11-07T08:31:44.915Z,11.39
2022-11-07T08:34:11.584Z,11.48
2022-11-07T08:36:38.215Z,11.52
2022-11-07T08:39:04.863Z,11.76
2022-11-07T08:41:31.479Z,11.86
2022-11-07T08:43:58.126Z,12.10
2022-11-07T08:46:24.694Z,12.19
2022-11-07T08:48:51.336Z,12.36
2022-11-07T08:51:17.961Z,12.83
2022-11-07T08:53:44.707Z,12.54
2022-11-07T08:56:11.446Z,12.37
2022-11-07T08:58:38.224Z,12.66
2022-11-07T09:01:07.127Z,12.68
2022-11-07T09:03:47.509Z,12.77
2022-11-07T09:06:17.496Z,12.94
2022-11-07T09:08:44.488Z,12.94
2022-11-07T09:11:11.113Z,13.02
2022-11-07T09:13:37.738Z,13.09
2022-11-07T09:16:04.926Z,13.09
2022-11-07T09:18:32.370Z,12.78
2022-11-07T09:20:59.141Z,13.02
2022-11-07T09:23:26.582Z,13.02
2022-11-07T09:25:53.286Z,13.12
2022-11-07T09:28:19.941Z,13.58
2022-11-07T09:30:46.662Z,13.42
2022-11-07T09:33:13.592Z,13.22
2022-11-07T09:35:40.498Z,13.34
2022-11-07T09:38:07.113Z,13.32
2022-11-07T09:40:47.495Z,13.42
2022-11-07T09:43:28.568Z,13.54
2022-11-07T09:46:04.666Z,13.72
2022-11-07T09:48:43.471Z,13.77
2022-11-07T09:51:29.395Z,13.86
2022-11-07T09:53:58.767Z,14.02
2022-11-07T09:56:25.346Z,14.02
2022-11-07T09:58:54.400Z,13.94
2022-11-07T10:01:21.279Z,14.05
2022-11-07T10:06:38.294Z,14.50
2022-11-07T10:09:21.596Z,14.35
2022-11-07T10:11:56.416Z,14.35
2022-11-07T10:14:35.817Z,14.31
2022-11-07T10:17:05.070Z,14.39
2022-11-07T10:20:05.251Z,14.45
2022-11-07T10:22:50.237Z,14.26
2022-11-07T10:25:16.794Z,14.07
2022-11-07T10:27:45.651Z,13.96
2022-11-07T10:30:16.753Z,14.03
2022-11-07T10:32:49.011Z,14.21
2022-11-07T10:35:24.554Z,14.75
2022-11-07T10:37:55.429Z,14.86
2022-11-07T10:40:22.015Z,14.95
2022-11-07T10:42:48.799Z,14.84
2022-11-07T10:45:16.202Z,14.93
2022-11-07T10:47:43.034Z,15.18
2022-11-07T10:50:21.339Z,15.33
2022-11-07T10:53:03.455Z,15.35
2022-11-07T10:55:31.868Z,15.17
2022-11-07T10:58:02.349Z,15.22
2022-11-07T11:00:30.402Z,14.98
2022-11-07T11:02:57.298Z,15.14
2022-11-07T11:05:46.268Z,15.39
2022-11-07T11:08:20.644Z,15.43
2022-11-07T11:10:47.576Z,15.49
2022-11-07T11:13:34.153Z,15.48
2022-11-07T11:16:29.978Z,16.13
2022-11-07T11:19:01.172Z,16.30
2022-11-07T11:21:41.905Z,16.50
2022-11-07T11:24:26.446Z,17.00
2022-11-07T11:26:53.110Z,17.54
2022-11-07T11:29:33.269Z,17.89
2022-11-07T11:32:03.581Z,17.62
2022-11-07T11:34:53.452Z,17.54
2022-11-07T11:37:21.204Z,17.43
2022-11-07T11:39:51.486Z,17.72
2022-11-07T11:42:25.738Z,17.39
2022-11-07T11:44:52.595Z,17.20
2022-11-07T11:47:34.065Z,16.95
2022-11-07T11:50:04.543Z,17.03
2022-11-07T11:52:34.531Z,17.19
2022-11-07T11:55:01.601Z,17.10
2022-11-07T11:57:47.039Z,17.07
2022-11-07T12:00:18.257Z,17.12
2022-11-07T12:03:06.710Z,16.51
2022-11-07T12:05:56.995Z,16.46
2022-11-07T12:08:56.073Z,16.68
2022-11-07T12:11:43.943Z,16.22
2022-11-07T12:14:25.709Z,16.11
2022-11-07T12:16:59.172Z,16.26
2022-11-07T12:19:30.446Z,16.54
2022-11-07T12:22:28.579Z,16.60
2022-11-07T12:25:22.170Z,16.39
2022-11-07T12:27:57.877Z,16.12
2022-11-07T12:30:33.345Z,16.14
2022-11-07T12:33:16.477Z,16.21
2022-11-07T12:35:53.779Z,16.52
2022-11-07T12:38:41.394Z,16.69
2022-11-07T12:41:24.018Z,16.30
2022-11-07T12:44:24.523Z,16.67
2022-11-07T12:46:55.063Z,16.24
2022-11-07T12:49:57.759Z,16.10
2022-11-07T12:52:45.693Z,16.14
2022-11-07T12:55:36.926Z,16.41
2022-11-07T12:58:03.594Z,16.43
2022-11-07T13:00:30.744Z,16.27
2022-11-07T13:03:25.582Z,16.14
2022-11-07T13:06:05.887Z,15.75
2022-11-07T13:08:45.055Z,16.15
2022-11-07T13:11:21.599Z,16.50
2022-11-07T13:14:09.417Z,16.74
2022-11-07T13:16:36.595Z,17.02
2022-11-07T13:19:10.652Z,16.98
2022-11-07T13:21:43.657Z,17.01
2022-11-07T13:24:39.218Z,16.70
2022-11-07T13:27:16.748Z,16.74
2022-11-07T13:29:45.270Z,16.59
2022-11-07T13:32:13.206Z,16.58
2022-11-07T13:34:59.233Z,16.49
2022-11-07T13:37:52.844Z,16.27
2022-11-07T13:40:31.029Z,16.22
2022-11-07T13:42:59.607Z,16.31
2022-11-07T13:45:42.992Z,16.16
2022-11-07T13:48:15.766Z,16.25
2022-11-07T13:50:58.711Z,16.23
2022-11-07T13:53:30.080Z,16.06
2022-11-07T13:56:20.222Z,15.96
2022-11-07T13:58:46.863Z,15.93
2022-11-07T14:01:13.592Z,15.96
2022-11-07T14:03:40.225Z,16.15
2022-11-07T14:06:06.830Z,16.05
2022-11-07T14:08:37.317Z,16.17
2022-11-07T14:11:04.652Z,15.81
2022-11-07T14:13:34.690Z,16.09
2022-11-07T14:16:15.776Z,15.82
2022-11-07T14:18:46.426Z,15.79
2022-11-07T14:21:21.016Z,15.73
2022-11-07T14:23:47.798Z,15.71
2022-11-07T14:26:25.842Z,15.60
2022-11-07T14:28:56.906Z,15.55
2022-11-07T14:31:26.451Z,15.58
2022-11-07T14:33:56.719Z,15.74
2022-11-07T14:36:23.455Z,15.54
2022-11-07T14:39:08.958Z,15.54
2022-11-07T14:41:39.623Z,15.52
2022-11-07T14:44:06.604Z,15.16
2022-11-07T14:46:33.278Z,14.98
2022-11-07T14:48:59.930Z,15.05
2022-11-07T14:51:27.587Z,15.03
2022-11-07T14:54:05.747Z,14.86
2022-11-07T14:56:34.523Z,14.86
2022-11-07T14:59:01.176Z,14.74
2022-11-07T15:01:30.206Z,14.55
2022-11-07T15:04:01.835Z,14.41
2022-11-07T15:06:33.500Z,14.24
2022-11-07T15:09:05.280Z,13.99
2022-11-07T15:11:36.370Z,13.92
2022-11-07T15:14:05.634Z,13.87
2022-11-07T15:16:36.556Z,13.88
2022-11-07T15:19:04.186Z,13.63
2022-11-07T15:21:35.879Z,13.46
2022-11-07T15:24:33.532Z,13.51
2022-11-07T15:27:03.932Z,13.30
2022-11-07T15:29:35.211Z,13.12
2022-11-07T15:32:15.810Z,13.13
2022-11-07T15:35:03.964Z,12.94
2022-11-07T15:37:29.459Z,13.06
2022-11-07T15:39:56.166Z,12.91
2022-11-07T15:42:22.790Z,12.93
2022-11-07T15:44:49.372Z,12.72
2022-11-07T15:47:19.894Z,12.61
2022-11-07T15:49:47.067Z,12.59
2022-11-07T15:52:13.905Z,12.06
2022-11-07T15:54:40.579Z,11.57
2022-11-07T15:57:07.265Z,11.50
2022-11-07T15:59:35.600Z,10.96
2022-11-07T16:02:02.506Z,10.63
2022-11-07T16:04:29.536Z,10.74
2022-11-07T16:06:56.181Z,10.95
2022-11-07T16:09:22.804Z,11.11
2022-11-07T16:11:49.492Z,11.07
2022-11-07T16:14:42.425Z,10.73
2022-11-07T16:17:04.867Z,10.64
2022-11-07T16:19:31.563Z,10.51
2022-11-07T16:21:58.236Z,10.20
2022-11-07T16:24:24.843Z,10.13
2022-11-07T16:26:51.524Z,10.09
2022-11-07T16:29:18.319Z,9.84
2022-11-07T16:31:44.983Z,9.94
2022-11-07T16:34:11.800Z,9.67
2022-11-07T16:36:38.510Z,9.68
2022-11-07T16:39:05.966Z,9.99
2022-11-07T16:41:32.902Z,9.69
2022-11-07T16:43:59.915Z,9.49
2022-11-07T16:46:27.444Z,9.48
2022-11-07T16:49:22.936Z,9.20
2022-11-07T16:51:49.602Z,9.39
2022-11-07T16:54:16.174Z,9.31
2022-11-07T16:56:43.081Z,8.83
2022-11-07T16:59:13.828Z,8.76
2022-11-07T17:01:40.534Z,8.55
2022-11-07T17:04:07.622Z,8.40
2022-11-07T17:06:34.844Z,8.79
2022-11-07T17:09:10.412Z,9.11
2022-11-07T17:11:39.976Z,8.61
2022-11-07T17:14:06.657Z,8.80
2022-11-07T17:16:36.548Z,8.89
2022-11-07T17:19:06.458Z,8.48
2022-11-07T17:21:36.312Z,8.42
2022-11-07T17:24:03.069Z,8.12
2022-11-07T17:26:38.870Z,7.86
2022-11-07T17:29:06.678Z,8.11
2022-11-07T17:31:33.563Z,8.09
2022-11-07T17:34:00.980Z,7.71
2022-11-07T17:36:37.435Z,7.89
2022-11-07T17:39:11.658Z,8.28
2022-11-07T17:41:42.303Z,8.02
2022-11-07T17:44:09.240Z,7.73
2022-11-07T17:46:36.673Z,7.71
2022-11-07T17:49:06.786Z,8.07
2022-11-07T17:51:35.732Z,8.23
2022-11-07T17:54:02.342Z,7.85
2022-11-07T17:56:30.157Z,7.71
2022-11-07T17:59:00.887Z,7.63
2022-11-07T18:01:30.172Z,7.99
2022-11-07T18:03:56.887Z,7.98
2022-11-07T18:06:24.116Z,7.63
2022-11-07T18:08:52.940Z,7.50
2022-11-07T18:11:20.638Z,7.49
2022-11-07T18:13:49.758Z,7.66
2022-11-07T18:16:24.034Z,7.58
2022-11-07T18:18:50.532Z,7.48
2022-11-07T18:21:17.350Z,7.54
2022-11-07T18:23:44.112Z,7.42
2022-11-07T18:26:11.608Z,7.15
2022-11-07T18:28:39.239Z,7.13
2022-11-07T18:31:11.487Z,6.43
2022-11-07T18:33:38.229Z,6.16
2022-11-07T18:36:07.595Z,6.09
2022-11-07T18:38:34.169Z,6.16
2022-11-07T18:41:02.763Z,6.44
2022-11-07T18:43:29.462Z,6.61
2022-11-07T18:45:56.858Z,6.65
2022-11-07T18:48:23.705Z,6.44
2022-11-07T18:50:51.052Z,6.64
2022-11-07T18:53:17.894Z,6.55
2022-11-07T18:55:44.579Z,6.79
2022-11-07T18:58:11.166Z,6.74
2022-11-07T19:00:37.929Z,6.62
2022-11-07T19:03:04.701Z,6.48
2022-11-07T19:05:31.379Z,6.62
2022-11-07T19:07:58.614Z,6.84
2022-11-07T19:10:25.460Z,6.98
2022-11-07T19:12:52.458Z,6.86
2022-11-07T19:15:21.047Z,6.80
2022-11-07T19:17:47.768Z,6.79
2022-11-07T19:20:14.382Z,6.68
2022-11-07T19:22:41.036Z,6.60
2022-11-07T19:25:08.078Z,6.44
2022-11-07T19:27:34.941Z,6.53
2022-11-07T19:30:01.860Z,6.60
2022-11-07T19:32:28.510Z,6.25
2022-11-07T19:34:55.614Z,6.49
2022-11-07T19:37:22.217Z,6.31
2022-11-07T19:39:48.840Z,6.40
2022-11-07T19:42:15.601Z,6.26
2022-11-07T19:44:48.473Z,6.14
2022-11-07T19:47:17.615Z,5.99
2022-11-07T19:49:44.200Z,6.18
2022-11-07T19:52:10.756Z,6.53
2022-11-07T19:54:37.638Z,6.67
2022-11-07T19:57:04.381Z,6.84
2022-11-07T19:59:31.078Z,6.93
2022-11-07T20:02:25.796Z,6.39
2022-11-07T20:04:44.603Z,6.27
2022-11-07T20:07:11.311Z,6.31
2022-11-07T20:09:37.987Z,6.14
2022-11-07T20:12:24.587Z,6.07
2022-11-07T20:14:51.313Z,6.01
2022-11-07T20:17:17.946Z,5.84
2022-11-07T20:19:44.611Z,5.97
2022-11-07T20:22:14.005Z,5.78
2022-11-07T20:24:40.663Z,5.99
2022-11-07T20:27:07.291Z,6.00
2022-11-07T20:29:34.072Z,6.07
2022-11-07T20:32:00.785Z,6.12
2022-11-07T20:34:27.396Z,6.16
2022-11-07T20:36:54.125Z,6.37
2022-11-07T20:39:21.204Z,6.31
2022-11-07T20:41:47.802Z,6.57
2022-11-07T20:44:15.111Z,6.82
2022-11-07T20:46:43.835Z,6.94
2022-11-07T20:49:14.699Z,7.14
2022-11-07T20:51:41.399Z,6.53
2022-11-07T20:54:09.118Z,6.19
2022-11-07T20:56:35.842Z,5.60
2022-11-07T20:59:02.493Z,5.90
2022-11-07T21:01:37.307Z,6.20
2022-11-07T21:04:09.032Z,6.48
2022-11-07T21:06:35.769Z,6.77
2022-11-07T21:09:02.589Z,6.58
2022-11-07T21:11:30.495Z,6.63
2022-11-07T21:13:57.369Z,6.67
2022-11-07T21:16:24.443Z,6.58
2022-11-07T21:18:51.352Z,6.50
2022-11-07T21:21:28.202Z,6.54
2022-11-07T21:23:56.442Z,6.77
2022-11-07T21:26:28.733Z,6.87
2022-11-07T21:28:56.028Z,6.80
2022-11-07T21:31:25.035Z,6.64
2022-11-07T21:33:51.947Z,6.76
2022-11-07T21:36:20.400Z,6.53
2022-11-07T21:38:47.244Z,6.63
2022-11-07T21:41:14.564Z,6.61
2022-11-07T21:43:41.219Z,6.72
2022-11-07T21:46:14.739Z,6.56
2022-11-07T21:48:41.486Z,6.54
2022-11-07T21:51:09.069Z,6.62
2022-11-07T21:53:38.033Z,6.82
2022-11-07T21:56:06.019Z,6.82
2022-11-07T21:58:32.707Z,6.73
2022-11-07T22:01:03.267Z,6.59
2022-11-07T22:03:58.886Z,6.55
2022-11-07T22:06:19.625Z,6.68
2022-11-07T22:08:47.591Z,6.89
2022-11-07T22:11:14.454Z,7.12
2022-11-07T22:13:41.084Z,6.79
2022-11-07T22:16:10.492Z,6.90
2022-11-07T22:18:37.179Z,6.68
2022-11-07T22:21:04.277Z,6.90
2022-11-07T22:23:32.401Z,7.21
2022-11-07T22:26:10.349Z,7.36
2022-11-07T22:28:40.363Z,7.30
2022-11-07T22:31:17.403Z,7.22
2022-11-07T22:33:44.072Z,7.38
2022-11-07T22:36:10.978Z,7.18
2022-11-07T22:38:37.876Z,7.03
2022-11-07T22:41:08.791Z,7.04
2022-11-07T22:43:35.417Z,7.11
2022-11-07T22:46:03.164Z,7.27
2022-11-07T22:48:29.798Z,7.40
2022-11-07T22:51:06.869Z,7.26
2022-11-07T22:53:33.794Z,7.03
2022-11-07T22:56:08.441Z,7.21
2022-11-07T22:58:35.005Z,7.23
2022-11-07T23:01:01.614Z,7.26
2022-11-07T23:03:28.321Z,7.35
2022-11-07T23:05:54.990Z,7.34
2022-11-07T23:08:21.552Z,7.45
2022-11-07T23:11:40.200Z,7.43
2022-11-07T23:13:47.547Z,7.41
2022-11-07T23:16:20.666Z,7.32
2022-11-07T23:18:47.335Z,7.30
2022-11-07T23:21:14.123Z,7.35
2022-11-07T23:23:41.446Z,7.00
2022-11-07T23:26:12.133Z,7.07
2022-11-07T23:28:39.229Z,7.26
2022-11-07T23:31:06.142Z,7.30
2022-11-07T23:33:35.236Z,7.34
2022-11-07T23:36:01.866Z,7.27
2022-11-07T23:38:28.511Z,7.27
2022-11-07T23:40:55.344Z,7.21
2022-11-07T23:43:22.559Z,7.22
2022-11-07T23:46:07.678Z,7.08
2022-11-07T23:48:52.689Z,7.29
2022-11-07T23:51:19.404Z,7.50
2022-11-07T23:54:04.551Z,7.51
2022-11-07T23:56:31.410Z,7.14
2022-11-07T23:59:16.391Z,7.04
